sensor_id;sensor_type;location;lat;lon;timestamp;temperature;humidity
262;DHT22;114;48.260;10.988;2022-08-18T00:01:49;17.50;99.90
262;DHT22;114;48.260;10.988;2022-08-18T00:04:15;17.50;99.90
262;DHT22;114;48.260;10.988;2022-08-18T00:06:50;17.50;99.90
262;DHT22;114;48.260;10.988;2022-08-18T00:09:19;17.50;99.90
262;DHT22;114;48.260;10.988;2022-08-18T00:11:46;17.50;99.90
262;DHT22;114;48.260;10.988;2022-08-18T00:14:15;17.60;99.90
262;DHT22;114;48.260;10.988;2022-08-18T00:16:42;17.60;99.90
262;DHT22;114;48.260;10.988;2022-08-18T00:19:09;17.60;99.90
262;DHT22;114;48.260;10.988;2022-08-18T00:21:34;17.70;99.90
262;DHT22;114;48.260;10.988;2022-08-18T00:24:00;17.60;99.90
262;DHT22;114;48.260;10.988;2022-08-18T00:26:27;17.60;99.90
262;DHT22;114;48.260;10.988;2022-08-18T00:28:54;17.50;99.90
262;DHT22;114;48.260;10.988;2022-08-18T00:31:20;17.60;99.90
262;DHT22;114;48.260;10.988;2022-08-18T00:33:46;17.60;99.90
262;DHT22;114;48.260;10.988;2022-08-18T00:36:13;17.60;99.90
262;DHT22;114;48.260;10.988;2022-08-18T00:38:39;17.60;99.90
262;DHT22;114;48.260;10.988;2022-08-18T00:41:07;17.60;99.90
262;DHT22;114;48.260;10.988;2022-08-18T00:46:13;17.60;99.90
262;DHT22;114;48.260;10.988;2022-08-18T00:48:40;17.60;99.90
262;DHT22;114;48.260;10.988;2022-08-18T00:51:26;17.50;99.90
262;DHT22;114;48.260;10.988;2022-08-18T00:54:11;17.50;99.90
262;DHT22;114;48.260;10.988;2022-08-18T00:56:45;17.50;99.90
262;DHT22;114;48.260;10.988;2022-08-18T01:02:06;17.50;99.90
262;DHT22;114;48.260;10.988;2022-08-18T01:04:41;17.50;99.90
262;DHT22;114;48.260;10.988;2022-08-18T01:07:15;17.50;99.90
262;DHT22;114;48.260;10.988;2022-08-18T01:09:49;17.50;99.90
262;DHT22;114;48.260;10.988;2022-08-18T01:12:16;17.60;99.90
262;DHT22;114;48.260;10.988;2022-08-18T01:14:42;17.50;99.90
262;DHT22;114;48.260;10.988;2022-08-18T01:17:08;17.50;99.90
262;DHT22;114;48.260;10.988;2022-08-18T01:19:53;17.40;99.90
262;DHT22;114;48.260;10.988;2022-08-18T01:25:19;17.40;99.90
262;DHT22;114;48.260;10.988;2022-08-18T01:28:07;17.30;99.90
262;DHT22;114;48.260;10.988;2022-08-18T01:30:45;17.30;99.90
262;DHT22;114;48.260;10.988;2022-08-18T01:33:17;17.30;99.90
262;DHT22;114;48.260;10.988;2022-08-18T01:35:46;17.30;99.90
262;DHT22;114;48.260;10.988;2022-08-18T01:38:18;17.20;99.90
262;DHT22;114;48.260;10.988;2022-08-18T01:40:45;17.20;99.90
262;DHT22;114;48.260;10.988;2022-08-18T01:43:12;17.20;99.90
262;DHT22;114;48.260;10.988;2022-08-18T01:45:40;17.10;99.90
262;DHT22;114;48.260;10.988;2022-08-18T01:48:06;17.20;99.90
262;DHT22;114;48.260;10.988;2022-08-18T01:50:32;17.10;99.90
262;DHT22;114;48.260;10.988;2022-08-18T01:53:01;17.00;99.90
262;DHT22;114;48.260;10.988;2022-08-18T01:55:28;17.10;99.90
262;DHT22;114;48.260;10.988;2022-08-18T01:57:55;17.00;99.90
262;DHT22;114;48.260;10.988;2022-08-18T02:00:20;16.90;99.90
262;DHT22;114;48.260;10.988;2022-08-18T02:02:48;16.90;99.90
262;DHT22;114;48.260;10.988;2022-08-18T02:05:21;16.90;99.90
262;DHT22;114;48.260;10.988;2022-08-18T02:07:48;16.80;99.90
262;DHT22;114;48.260;10.988;2022-08-18T02:10:14;16.70;99.90
262;DHT22;114;48.260;10.988;2022-08-18T02:12:41;16.70;99.90
262;DHT22;114;48.260;10.988;2022-08-18T02:15:09;16.70;99.90
262;DHT22;114;48.260;10.988;2022-08-18T02:17:45;16.70;99.90
262;DHT22;114;48.260;10.988;2022-08-18T02:20:16;16.70;99.90
262;DHT22;114;48.260;10.988;2022-08-18T02:22:42;16.60;99.90
262;DHT22;114;48.260;10.988;2022-08-18T02:25:09;16.60;99.90
262;DHT22;114;48.260;10.988;2022-08-18T02:27:34;16.50;99.90
262;DHT22;114;48.260;10.988;2022-08-18T02:30:02;16.50;99.90
262;DHT22;114;48.260;10.988;2022-08-18T02:32:31;16.50;99.90
262;DHT22;114;48.260;10.988;2022-08-18T02:34:58;16.40;99.90
262;DHT22;114;48.260;10.988;2022-08-18T02:37:24;16.30;99.90
262;DHT22;114;48.260;10.988;2022-08-18T02:39:50;16.40;99.90
262;DHT22;114;48.260;10.988;2022-08-18T02:42:16;16.40;99.90
262;DHT22;114;48.260;10.988;2022-08-18T02:44:43;16.40;99.90
262;DHT22;114;48.260;10.988;2022-08-18T02:47:09;16.40;99.90
262;DHT22;114;48.260;10.988;2022-08-18T02:49:34;16.40;99.90
262;DHT22;114;48.260;10.988;2022-08-18T02:52:01;16.30;99.90
262;DHT22;114;48.260;10.988;2022-08-18T02:54:28;16.20;99.90
262;DHT22;114;48.260;10.988;2022-08-18T02:56:54;16.10;99.90
262;DHT22;114;48.260;10.988;2022-08-18T02:59:25;16.10;99.90
262;DHT22;114;48.260;10.988;2022-08-18T03:01:54;16.10;99.90
262;DHT22;114;48.260;10.988;2022-08-18T03:04:24;16.10;99.90
262;DHT22;114;48.260;10.988;2022-08-18T03:06:53;16.10;99.90
262;DHT22;114;48.260;10.988;2022-08-18T03:09:19;16.10;99.90
262;DHT22;114;48.260;10.988;2022-08-18T03:11:46;16.10;99.90
262;DHT22;114;48.260;10.988;2022-08-18T03:14:14;16.00;99.90
262;DHT22;114;48.260;10.988;2022-08-18T03:16:43;16.00;99.90
262;DHT22;114;48.260;10.988;2022-08-18T03:19:09;16.00;99.90
262;DHT22;114;48.260;10.988;2022-08-18T03:21:36;16.00;99.90
262;DHT22;114;48.260;10.988;2022-08-18T03:24:03;16.00;99.90
262;DHT22;114;48.260;10.988;2022-08-18T03:26:31;15.90;99.90
262;DHT22;114;48.260;10.988;2022-08-18T03:28:59;15.90;99.90
262;DHT22;114;48.260;10.988;2022-08-18T03:31:27;15.90;99.90
262;DHT22;114;48.260;10.988;2022-08-18T03:33:54;15.90;99.90
262;DHT22;114;48.260;10.988;2022-08-18T03:36:23;15.90;99.90
262;DHT22;114;48.260;10.988;2022-08-18T03:38:51;15.80;99.90
262;DHT22;114;48.260;10.988;2022-08-18T03:41:20;15.80;99.90
262;DHT22;114;48.260;10.988;2022-08-18T03:43:47;15.80;99.90
262;DHT22;114;48.260;10.988;2022-08-18T03:46:15;15.80;99.90
262;DHT22;114;48.260;10.988;2022-08-18T03:48:44;15.80;99.90
262;DHT22;114;48.260;10.988;2022-08-18T03:51:35;15.80;99.90
262;DHT22;114;48.260;10.988;2022-08-18T03:54:02;15.80;99.90
262;DHT22;114;48.260;10.988;2022-08-18T03:56:35;15.80;99.90
262;DHT22;114;48.260;10.988;2022-08-18T03:59:05;15.70;99.90
262;DHT22;114;48.260;10.988;2022-08-18T04:01:36;15.70;99.90
262;DHT22;114;48.260;10.988;2022-08-18T04:04:05;15.80;99.90
262;DHT22;114;48.260;10.988;2022-08-18T04:06:38;15.80;99.90
262;DHT22;114;48.260;10.988;2022-08-18T04:09:06;15.80;99.90
262;DHT22;114;48.260;10.988;2022-08-18T04:11:34;15.80;99.90
262;DHT22;114;48.260;10.988;2022-08-18T04:14:00;15.80;99.90
262;DHT22;114;48.260;10.988;2022-08-18T04:16:29;15.80;99.90
262;DHT22;114;48.260;10.988;2022-08-18T04:18:57;15.80;99.90
262;DHT22;114;48.260;10.988;2022-08-18T04:21:27;15.80;99.90
262;DHT22;114;48.260;10.988;2022-08-18T04:23:52;15.80;99.90
262;DHT22;114;48.260;10.988;2022-08-18T04:26:24;15.80;99.90
262;DHT22;114;48.260;10.988;2022-08-18T04:28:50;15.80;99.90
262;DHT22;114;48.260;10.988;2022-08-18T04:31:16;15.90;99.90
262;DHT22;114;48.260;10.988;2022-08-18T04:33:44;15.90;99.90
262;DHT22;114;48.260;10.988;2022-08-18T04:36:13;15.90;99.90
262;DHT22;114;48.260;10.988;2022-08-18T04:38:42;15.90;99.90
262;DHT22;114;48.260;10.988;2022-08-18T04:41:10;15.70;99.90
262;DHT22;114;48.260;10.988;2022-08-18T04:43:37;15.90;99.90
262;DHT22;114;48.260;10.988;2022-08-18T04:46:04;16.00;99.90
262;DHT22;114;48.260;10.988;2022-08-18T04:48:36;16.00;99.90
262;DHT22;114;48.260;10.988;2022-08-18T04:51:11;16.10;99.90
262;DHT22;114;48.260;10.988;2022-08-18T04:53:38;16.10;99.90
262;DHT22;114;48.260;10.988;2022-08-18T04:56:32;16.10;99.90
262;DHT22;114;48.260;10.988;2022-08-18T04:59:02;16.20;99.90
262;DHT22;114;48.260;10.988;2022-08-18T05:01:39;16.20;99.90
262;DHT22;114;48.260;10.988;2022-08-18T05:04:08;16.20;99.90
262;DHT22;114;48.260;10.988;2022-08-18T05:06:35;16.20;99.90
262;DHT22;114;48.260;10.988;2022-08-18T05:09:04;16.30;99.90
262;DHT22;114;48.260;10.988;2022-08-18T05:11:32;16.40;99.90
262;DHT22;114;48.260;10.988;2022-08-18T05:14:01;16.50;99.90
262;DHT22;114;48.260;10.988;2022-08-18T05:16:28;16.50;99.90
262;DHT22;114;48.260;10.988;2022-08-18T05:18:54;16.50;99.90
262;DHT22;114;48.260;10.988;2022-08-18T05:21:21;16.50;99.90
262;DHT22;114;48.260;10.988;2022-08-18T05:23:49;16.40;99.90
262;DHT22;114;48.260;10.988;2022-08-18T05:26:16;16.50;99.90
262;DHT22;114;48.260;10.988;2022-08-18T05:28:43;16.60;99.90
262;DHT22;114;48.260;10.988;2022-08-18T05:31:11;16.60;99.90
262;DHT22;114;48.260;10.988;2022-08-18T05:33:38;16.50;99.90
262;DHT22;114;48.260;10.988;2022-08-18T05:44:29;16.60;99.90
262;DHT22;114;48.260;10.988;2022-08-18T05:49:47;16.70;99.90
262;DHT22;114;48.260;10.988;2022-08-18T05:56:01;16.80;99.90
262;DHT22;114;48.260;10.988;2022-08-18T05:58:50;16.90;99.90
262;DHT22;114;48.260;10.988;2022-08-18T06:01:28;16.90;99.90
262;DHT22;114;48.260;10.988;2022-08-18T06:04:46;16.90;99.90
262;DHT22;114;48.260;10.988;2022-08-18T06:06:45;17.00;99.90
262;DHT22;114;48.260;10.988;2022-08-18T06:09:37;17.00;99.90
262;DHT22;114;48.260;10.988;2022-08-18T06:12:26;17.20;99.90
262;DHT22;114;48.260;10.988;2022-08-18T06:14:58;17.20;99.90
262;DHT22;114;48.260;10.988;2022-08-18T06:17:42;17.20;99.90
262;DHT22;114;48.260;10.988;2022-08-18T06:28:35;17.40;99.90
262;DHT22;114;48.260;10.988;2022-08-18T06:31:21;17.40;99.90
262;DHT22;114;48.260;10.988;2022-08-18T06:34:12;17.40;99.90
262;DHT22;114;48.260;10.988;2022-08-18T06:37:06;17.40;99.90
262;DHT22;114;48.260;10.988;2022-08-18T06:39:44;17.50;99.90
262;DHT22;114;48.260;10.988;2022-08-18T06:42:23;17.60;99.90
262;DHT22;114;48.260;10.988;2022-08-18T06:45:00;17.50;99.90
262;DHT22;114;48.260;10.988;2022-08-18T06:47:57;17.50;99.20
262;DHT22;114;48.260;10.988;2022-08-18T06:50:44;17.50;99.70
262;DHT22;114;48.260;10.988;2022-08-18T06:53:11;17.50;98.90
262;DHT22;114;48.260;10.988;2022-08-18T06:55:43;17.50;99.20
262;DHT22;114;48.260;10.988;2022-08-18T07:04:02;18.00;97.50
262;DHT22;114;48.260;10.988;2022-08-18T07:06:30;18.20;95.20
262;DHT22;114;48.260;10.988;2022-08-18T07:09:18;18.40;94.40
262;DHT22;114;48.260;10.988;2022-08-18T07:12:01;18.70;91.90
262;DHT22;114;48.260;10.988;2022-08-18T07:14:28;19.00;79.60
262;DHT22;114;48.260;10.988;2022-08-18T07:17:13;18.90;75.20
262;DHT22;114;48.260;10.988;2022-08-18T07:19:43;19.10;73.00
262;DHT22;114;48.260;10.988;2022-08-18T07:22:18;19.20;64.00
262;DHT22;114;48.260;10.988;2022-08-18T07:24:49;19.40;70.20
262;DHT22;114;48.260;10.988;2022-08-18T07:27:18;19.60;68.10
262;DHT22;114;48.260;10.988;2022-08-18T07:30:09;19.70;70.20
262;DHT22;114;48.260;10.988;2022-08-18T07:33:17;19.70;58.80
262;DHT22;114;48.260;10.988;2022-08-18T07:35:49;19.50;55.60
262;DHT22;114;48.260;10.988;2022-08-18T07:40:56;19.30;67.90
262;DHT22;114;48.260;10.988;2022-08-18T07:49:27;19.40;64.80
262;DHT22;114;48.260;10.988;2022-08-18T07:52:04;19.10;67.60
262;DHT22;114;48.260;10.988;2022-08-18T07:59:49;19.40;68.30
262;DHT22;114;48.260;10.988;2022-08-18T08:08:55;19.40;70.60
262;DHT22;114;48.260;10.988;2022-08-18T08:11:18;19.40;69.10
262;DHT22;114;48.260;10.988;2022-08-18T08:13:53;19.70;68.60
262;DHT22;114;48.260;10.988;2022-08-18T08:25:00;19.80;60.40
262;DHT22;114;48.260;10.988;2022-08-18T08:30:26;19.90;55.80
262;DHT22;114;48.260;10.988;2022-08-18T08:35:48;20.00;56.10
262;DHT22;114;48.260;10.988;2022-08-18T08:38:33;20.00;54.60
262;DHT22;114;48.260;10.988;2022-08-18T08:41:09;20.10;54.10
262;DHT22;114;48.260;10.988;2022-08-18T08:43:44;20.00;53.20
262;DHT22;114;48.260;10.988;2022-08-18T08:46:20;20.00;53.80
262;DHT22;114;48.260;10.988;2022-08-18T08:48:58;20.40;51.40
262;DHT22;114;48.260;10.988;2022-08-18T08:51:40;20.50;44.80
262;DHT22;114;48.260;10.988;2022-08-18T08:54:40;20.80;47.40
262;DHT22;114;48.260;10.988;2022-08-18T08:57:10;20.60;45.60
262;DHT22;114;48.260;10.988;2022-08-18T08:59:36;20.80;42.70
262;DHT22;114;48.260;10.988;2022-08-18T09:10:44;21.60;37.80
262;DHT22;114;48.260;10.988;2022-08-18T09:18:55;22.90;12.10
262;DHT22;114;48.260;10.988;2022-08-18T09:21:40;23.30;8.40
262;DHT22;114;48.260;10.988;2022-08-18T09:24:26;23.20;8.50
262;DHT22;114;48.260;10.988;2022-08-18T09:35:09;24.10;1.00
262;DHT22;114;48.260;10.988;2022-08-18T09:37:42;24.50;1.00
262;DHT22;114;48.260;10.988;2022-08-18T09:40:15;24.60;1.00
262;DHT22;114;48.260;10.988;2022-08-18T09:43:13;24.30;1.00
262;DHT22;114;48.260;10.988;2022-08-18T09:45:53;24.60;1.00
262;DHT22;114;48.260;10.988;2022-08-18T09:48:27;25.10;1.00
262;DHT22;114;48.260;10.988;2022-08-18T09:51:41;25.20;1.00
262;DHT22;114;48.260;10.988;2022-08-18T10:02:03;24.30;1.00
262;DHT22;114;48.260;10.988;2022-08-18T10:04:41;24.30;1.00
262;DHT22;114;48.260;10.988;2022-08-18T10:20:33;24.30;1.00
262;DHT22;114;48.260;10.988;2022-08-18T10:23:04;24.80;1.00
262;DHT22;114;48.260;10.988;2022-08-18T10:27:57;25.40;1.00
262;DHT22;114;48.260;10.988;2022-08-18T10:33:03;26.30;1.00
262;DHT22;114;48.260;10.988;2022-08-18T10:38:13;26.80;1.00
262;DHT22;114;48.260;10.988;2022-08-18T10:40:53;26.40;1.00
262;DHT22;114;48.260;10.988;2022-08-18T10:43:45;25.90;1.00
262;DHT22;114;48.260;10.988;2022-08-18T10:46:39;26.40;1.00
262;DHT22;114;48.260;10.988;2022-08-18T10:59:53;27.50;1.00
262;DHT22;114;48.260;10.988;2022-08-18T11:05:11;27.30;1.00
262;DHT22;114;48.260;10.988;2022-08-18T11:07:40;26.80;1.00
262;DHT22;114;48.260;10.988;2022-08-18T11:10:40;26.80;1.00
262;DHT22;114;48.260;10.988;2022-08-18T11:18:43;27.20;1.00
262;DHT22;114;48.260;10.988;2022-08-18T11:21:23;27.40;1.00
262;DHT22;114;48.260;10.988;2022-08-18T11:26:32;28.70;1.00
262;DHT22;114;48.260;10.988;2022-08-18T11:37:23;28.80;1.00
262;DHT22;114;48.260;10.988;2022-08-18T11:39:55;28.70;1.00
262;DHT22;114;48.260;10.988;2022-08-18T11:42:37;28.70;1.00
262;DHT22;114;48.260;10.988;2022-08-18T11:45:18;29.70;1.00
262;DHT22;114;48.260;10.988;2022-08-18T11:50:57;31.00;1.00
262;DHT22;114;48.260;10.988;2022-08-18T11:53:40;30.30;1.00
262;DHT22;114;48.260;10.988;2022-08-18T11:56:14;30.70;1.00
262;DHT22;114;48.260;10.988;2022-08-18T12:07:03;32.40;1.00
262;DHT22;114;48.260;10.988;2022-08-18T12:12:15;32.60;1.00
262;DHT22;114;48.260;10.988;2022-08-18T12:15:23;31.90;1.00
262;DHT22;114;48.260;10.988;2022-08-18T12:17:51;31.00;1.00
262;DHT22;114;48.260;10.988;2022-08-18T12:20:17;31.90;1.00
262;DHT22;114;48.260;10.988;2022-08-18T12:22:45;32.50;1.00
262;DHT22;114;48.260;10.988;2022-08-18T12:25:16;32.70;1.00
262;DHT22;114;48.260;10.988;2022-08-18T12:27:43;33.30;1.00
262;DHT22;114;48.260;10.988;2022-08-18T12:30:10;33.90;1.00
262;DHT22;114;48.260;10.988;2022-08-18T12:32:36;33.80;1.00
262;DHT22;114;48.260;10.988;2022-08-18T12:35:04;33.50;1.00
262;DHT22;114;48.260;10.988;2022-08-18T12:37:32;33.10;1.00
262;DHT22;114;48.260;10.988;2022-08-18T12:39:59;33.10;1.00
262;DHT22;114;48.260;10.988;2022-08-18T12:42:26;32.20;1.00
262;DHT22;114;48.260;10.988;2022-08-18T12:44:52;31.80;1.00
262;DHT22;114;48.260;10.988;2022-08-18T12:47:22;31.00;1.00
262;DHT22;114;48.260;10.988;2022-08-18T12:49:49;30.20;1.00
262;DHT22;114;48.260;10.988;2022-08-18T12:52:16;30.00;1.00
262;DHT22;114;48.260;10.988;2022-08-18T12:54:46;29.80;1.00
262;DHT22;114;48.260;10.988;2022-08-18T12:57:30;29.30;1.00
262;DHT22;114;48.260;10.988;2022-08-18T12:59:56;28.90;1.00
262;DHT22;114;48.260;10.988;2022-08-18T13:02:22;28.70;1.00
262;DHT22;114;48.260;10.988;2022-08-18T13:04:47;28.90;1.00
262;DHT22;114;48.260;10.988;2022-08-18T13:07:13;29.40;1.00
262;DHT22;114;48.260;10.988;2022-08-18T13:09:41;29.90;1.00
262;DHT22;114;48.260;10.988;2022-08-18T13:12:08;30.00;1.00
262;DHT22;114;48.260;10.988;2022-08-18T13:14:34;30.40;1.00
262;DHT22;114;48.260;10.988;2022-08-18T13:17:01;30.60;1.00
262;DHT22;114;48.260;10.988;2022-08-18T13:19:27;30.50;1.00
262;DHT22;114;48.260;10.988;2022-08-18T13:21:53;30.00;1.00
262;DHT22;114;48.260;10.988;2022-08-18T13:24:20;29.10;1.00
262;DHT22;114;48.260;10.988;2022-08-18T13:26:46;28.70;1.00
262;DHT22;114;48.260;10.988;2022-08-18T13:29:14;28.20;1.00
262;DHT22;114;48.260;10.988;2022-08-18T13:31:42;27.80;1.00
262;DHT22;114;48.260;10.988;2022-08-18T13:34:09;27.60;1.00
262;DHT22;114;48.260;10.988;2022-08-18T13:36:35;27.50;1.00
262;DHT22;114;48.260;10.988;2022-08-18T13:39:12;27.10;1.00
262;DHT22;114;48.260;10.988;2022-08-18T13:41:39;27.00;1.00
262;DHT22;114;48.260;10.988;2022-08-18T13:44:06;27.00;1.00
262;DHT22;114;48.260;10.988;2022-08-18T13:46:32;27.10;1.00
262;DHT22;114;48.260;10.988;2022-08-18T13:48:58;27.10;1.00
262;DHT22;114;48.260;10.988;2022-08-18T13:51:28;27.10;1.00
262;DHT22;114;48.260;10.988;2022-08-18T13:53:53;27.20;1.00
262;DHT22;114;48.260;10.988;2022-08-18T13:56:20;26.90;1.00
262;DHT22;114;48.260;10.988;2022-08-18T13:58:47;26.90;1.00
262;DHT22;114;48.260;10.988;2022-08-18T14:01:14;27.00;1.00
262;DHT22;114;48.260;10.988;2022-08-18T14:03:40;26.90;1.00
262;DHT22;114;48.260;10.988;2022-08-18T14:06:07;26.80;1.00
262;DHT22;114;48.260;10.988;2022-08-18T14:08:34;26.70;1.00
262;DHT22;114;48.260;10.988;2022-08-18T14:11:01;26.60;1.00
262;DHT22;114;48.260;10.988;2022-08-18T14:13:28;26.70;1.00
262;DHT22;114;48.260;10.988;2022-08-18T14:15:55;27.10;1.00
262;DHT22;114;48.260;10.988;2022-08-18T14:18:25;27.20;1.00
262;DHT22;114;48.260;10.988;2022-08-18T14:20:51;27.00;1.00
262;DHT22;114;48.260;10.988;2022-08-18T14:23:37;26.90;1.00
262;DHT22;114;48.260;10.988;2022-08-18T14:26:21;26.60;1.00
262;DHT22;114;48.260;10.988;2022-08-18T14:29:05;26.60;1.00
262;DHT22;114;48.260;10.988;2022-08-18T14:31:32;26.50;1.00
262;DHT22;114;48.260;10.988;2022-08-18T14:33:57;26.40;1.00
262;DHT22;114;48.260;10.988;2022-08-18T14:36:23;26.10;1.00
262;DHT22;114;48.260;10.988;2022-08-18T14:38:50;25.90;1.00
262;DHT22;114;48.260;10.988;2022-08-18T14:41:16;25.80;1.00
262;DHT22;114;48.260;10.988;2022-08-18T14:43:48;25.70;1.00
262;DHT22;114;48.260;10.988;2022-08-18T14:46:17;25.70;1.00
262;DHT22;114;48.260;10.988;2022-08-18T14:48:45;25.70;1.00
262;DHT22;114;48.260;10.988;2022-08-18T14:51:13;25.70;1.00
262;DHT22;114;48.260;10.988;2022-08-18T14:53:39;25.70;1.00
262;DHT22;114;48.260;10.988;2022-08-18T14:56:05;25.60;1.00
262;DHT22;114;48.260;10.988;2022-08-18T14:58:34;25.50;1.00
262;DHT22;114;48.260;10.988;2022-08-18T15:01:02;25.40;1.00
262;DHT22;114;48.260;10.988;2022-08-18T15:03:30;25.10;1.00
262;DHT22;114;48.260;10.988;2022-08-18T15:05:58;25.00;1.00
262;DHT22;114;48.260;10.988;2022-08-18T15:08:24;25.00;1.00
262;DHT22;114;48.260;10.988;2022-08-18T15:10:50;25.00;1.00
262;DHT22;114;48.260;10.988;2022-08-18T15:13:16;24.90;1.00
262;DHT22;114;48.260;10.988;2022-08-18T15:15:42;24.80;1.00
262;DHT22;114;48.260;10.988;2022-08-18T15:18:09;24.90;1.00
262;DHT22;114;48.260;10.988;2022-08-18T15:20:35;24.70;1.00
262;DHT22;114;48.260;10.988;2022-08-18T15:23:21;24.70;1.00
262;DHT22;114;48.260;10.988;2022-08-18T15:26:05;24.50;1.00
262;DHT22;114;48.260;10.988;2022-08-18T15:28:31;24.40;1.00
262;DHT22;114;48.260;10.988;2022-08-18T15:30:57;24.40;1.00
262;DHT22;114;48.260;10.988;2022-08-18T15:33:23;24.40;1.00
262;DHT22;114;48.260;10.988;2022-08-18T15:35:50;24.30;1.00
262;DHT22;114;48.260;10.988;2022-08-18T15:38:18;24.30;1.00
262;DHT22;114;48.260;10.988;2022-08-18T15:40:55;24.30;1.00
262;DHT22;114;48.260;10.988;2022-08-18T15:43:26;24.30;1.00
262;DHT22;114;48.260;10.988;2022-08-18T15:45:52;24.30;1.00
262;DHT22;114;48.260;10.988;2022-08-18T15:48:19;24.20;1.00
262;DHT22;114;48.260;10.988;2022-08-18T15:50:47;24.10;1.00
262;DHT22;114;48.260;10.988;2022-08-18T15:53:16;24.10;1.00
262;DHT22;114;48.260;10.988;2022-08-18T15:55:42;24.10;1.00
262;DHT22;114;48.260;10.988;2022-08-18T15:58:08;24.10;1.00
262;DHT22;114;48.260;10.988;2022-08-18T16:00:35;23.90;1.00
262;DHT22;114;48.260;10.988;2022-08-18T16:03:09;23.90;1.00
262;DHT22;114;48.260;10.988;2022-08-18T16:05:53;23.90;1.00
262;DHT22;114;48.260;10.988;2022-08-18T16:08:21;23.90;1.00
262;DHT22;114;48.260;10.988;2022-08-18T16:10:48;23.80;1.00
262;DHT22;114;48.260;10.988;2022-08-18T16:13:14;23.80;1.00
262;DHT22;114;48.260;10.988;2022-08-18T16:15:42;23.80;1.00
262;DHT22;114;48.260;10.988;2022-08-18T16:18:12;23.80;1.00
262;DHT22;114;48.260;10.988;2022-08-18T16:20:38;23.80;1.00
262;DHT22;114;48.260;10.988;2022-08-18T16:23:04;23.60;1.00
262;DHT22;114;48.260;10.988;2022-08-18T16:25:31;23.60;1.00
262;DHT22;114;48.260;10.988;2022-08-18T16:27:58;23.60;1.00
262;DHT22;114;48.260;10.988;2022-08-18T16:30:26;23.50;6.30
262;DHT22;114;48.260;10.988;2022-08-18T16:32:52;23.30;4.30
262;DHT22;114;48.260;10.988;2022-08-18T16:35:19;23.20;8.30
262;DHT22;114;48.260;10.988;2022-08-18T16:37:47;23.10;11.20
262;DHT22;114;48.260;10.988;2022-08-18T16:40:15;23.00;13.20
262;DHT22;114;48.260;10.988;2022-08-18T16:42:45;22.90;16.00
262;DHT22;114;48.260;10.988;2022-08-18T16:45:12;22.80;16.00
262;DHT22;114;48.260;10.988;2022-08-18T16:47:40;22.70;18.10
262;DHT22;114;48.260;10.988;2022-08-18T16:50:11;22.60;18.70
262;DHT22;114;48.260;10.988;2022-08-18T16:52:38;22.60;20.50
262;DHT22;114;48.260;10.988;2022-08-18T16:55:06;22.50;19.60
262;DHT22;114;48.260;10.988;2022-08-18T16:57:33;22.30;22.70
262;DHT22;114;48.260;10.988;2022-08-18T17:00:20;22.30;23.00
262;DHT22;114;48.260;10.988;2022-08-18T17:03:06;22.20;23.90
262;DHT22;114;48.260;10.988;2022-08-18T17:06:03;22.20;29.60
262;DHT22;114;48.260;10.988;2022-08-18T17:08:29;22.10;27.10
262;DHT22;114;48.260;10.988;2022-08-18T17:11:03;22.00;30.30
262;DHT22;114;48.260;10.988;2022-08-18T17:13:29;22.00;30.90
262;DHT22;114;48.260;10.988;2022-08-18T17:15:56;21.90;33.10
262;DHT22;114;48.260;10.988;2022-08-18T17:18:22;21.80;42.20
262;DHT22;114;48.260;10.988;2022-08-18T17:20:49;21.70;46.60
262;DHT22;114;48.260;10.988;2022-08-18T17:23:16;21.60;54.30
262;DHT22;114;48.260;10.988;2022-08-18T17:25:43;21.40;56.20
262;DHT22;114;48.260;10.988;2022-08-18T17:28:12;21.30;58.70
262;DHT22;114;48.260;10.988;2022-08-18T17:30:45;21.10;67.10
262;DHT22;114;48.260;10.988;2022-08-18T17:33:15;21.00;68.30
262;DHT22;114;48.260;10.988;2022-08-18T17:35:44;20.90;71.50
262;DHT22;114;48.260;10.988;2022-08-18T17:38:24;20.80;76.10
262;DHT22;114;48.260;10.988;2022-08-18T17:40:54;20.90;75.20
262;DHT22;114;48.260;10.988;2022-08-18T17:43:23;20.80;76.20
262;DHT22;114;48.260;10.988;2022-08-18T17:46:13;20.70;82.10
262;DHT22;114;48.260;10.988;2022-08-18T17:48:48;20.60;86.10
262;DHT22;114;48.260;10.988;2022-08-18T17:51:41;20.40;87.50
262;DHT22;114;48.260;10.988;2022-08-18T17:56:58;20.20;91.50
262;DHT22;114;48.260;10.988;2022-08-18T18:02:15;19.90;95.60
262;DHT22;114;48.260;10.988;2022-08-18T18:04:46;19.80;96.80
262;DHT22;114;48.260;10.988;2022-08-18T18:07:36;19.70;98.60
262;DHT22;114;48.260;10.988;2022-08-18T18:10:07;19.50;99.90
262;DHT22;114;48.260;10.988;2022-08-18T18:12:35;19.50;99.90
262;DHT22;114;48.260;10.988;2022-08-18T18:15:06;19.40;99.90
262;DHT22;114;48.260;10.988;2022-08-18T18:17:37;19.40;99.90
262;DHT22;114;48.260;10.988;2022-08-18T18:22:43;19.40;99.90
262;DHT22;114;48.260;10.988;2022-08-18T18:25:12;19.40;99.90
262;DHT22;114;48.260;10.988;2022-08-18T18:27:41;19.30;99.90
262;DHT22;114;48.260;10.988;2022-08-18T18:35:22;19.30;99.90
262;DHT22;114;48.260;10.988;2022-08-18T18:37:50;19.30;99.90
262;DHT22;114;48.260;10.988;2022-08-18T18:42:56;19.30;99.90
262;DHT22;114;48.260;10.988;2022-08-18T18:45:29;19.30;99.90
262;DHT22;114;48.260;10.988;2022-08-18T18:48:28;19.20;99.90
262;DHT22;114;48.260;10.988;2022-08-18T18:51:13;19.20;99.90
262;DHT22;114;48.260;10.988;2022-08-18T18:54:03;19.20;99.90
262;DHT22;114;48.260;10.988;2022-08-18T18:56:38;19.20;99.90
262;DHT22;114;48.260;10.988;2022-08-18T19:01:58;19.10;99.90
262;DHT22;114;48.260;10.988;2022-08-18T19:04:32;19.10;99.90
262;DHT22;114;48.260;10.988;2022-08-18T19:07:04;19.10;99.90
262;DHT22;114;48.260;10.988;2022-08-18T19:09:47;19.10;99.90
262;DHT22;114;48.260;10.988;2022-08-18T19:12:23;19.10;99.90
262;DHT22;114;48.260;10.988;2022-08-18T19:14:58;19.20;99.90
262;DHT22;114;48.260;10.988;2022-08-18T19:19:58;19.20;99.90
262;DHT22;114;48.260;10.988;2022-08-18T19:22:34;19.20;99.90
262;DHT22;114;48.260;10.988;2022-08-18T19:25:13;19.20;99.90
262;DHT22;114;48.260;10.988;2022-08-18T19:28:06;19.20;99.90
262;DHT22;114;48.260;10.988;2022-08-18T19:30:37;19.20;99.90
262;DHT22;114;48.260;10.988;2022-08-18T19:33:05;19.20;99.90
262;DHT22;114;48.260;10.988;2022-08-18T19:41:09;19.20;99.90
262;DHT22;114;48.260;10.988;2022-08-18T19:46:44;19.20;99.90
262;DHT22;114;48.260;10.988;2022-08-18T19:52:37;19.10;99.90
262;DHT22;114;48.260;10.988;2022-08-18T19:55:36;19.10;99.90
262;DHT22;114;48.260;10.988;2022-08-18T20:03:52;19.10;99.90
262;DHT22;114;48.260;10.988;2022-08-18T20:06:26;19.10;99.90
262;DHT22;114;48.260;10.988;2022-08-18T20:12:07;19.10;99.90
262;DHT22;114;48.260;10.988;2022-08-18T20:14:39;19.10;99.90
262;DHT22;114;48.260;10.988;2022-08-18T20:22:28;19.00;99.90
262;DHT22;114;48.260;10.988;2022-08-18T20:27:43;18.90;99.90
262;DHT22;114;48.260;10.988;2022-08-18T20:30:32;18.90;99.90
262;DHT22;114;48.260;10.988;2022-08-18T20:33:16;18.80;99.90